• Join FlightAware (Why Join?)
  • Login
  • US Flag 
12:00AM EDT


 

Airport Tracker/Info


-or-


 

Live Flight TrackerFlight Track Log ✈ UAL4700 ✈ 03-May-2013 ✈ KEWR - KCLT

Flight Track Log - Related Links

Times and Time Zones

All times are in EDT time to prevent confusion due to time zone crossing. See the UAL4700 flight status page for this flight to view local times or setup timezone preferences in your user account.

Time Position Orientation Groundspeed Altitude Reporting Facility
EDT Latitude Longitude Course Direction KTS MPH feet Rate Location/Type
09:22PM 40.6500 -74.1819 246° West 173 199 1,500  Level New York Center
09:23PM 40.6333 -74.2000 219° Southwest 197 227 2,600 2,160 Climbing New York TRACON
09:24PM 40.6333 -74.2833 270° West 243 280 4,800 2,340 Climbing New York TRACON
09:25PM 40.5303 -74.6168 250° West  Level FlightAware Approximate
09:25PM 40.6167 -74.3833 258° West 255 293 7,300  Level New York TRACON
09:26PM 40.4937 -74.7358 246° West  Level FlightAware Approximate
09:26PM 40.5833 -74.4667 242° Southwest 262 302 9,500  Level New York TRACON
09:27PM 40.4544 -74.8535 246° West  Level FlightAware Approximate
09:27PM 40.5500 -74.5667 246° West 303 349 10,900  Level New York TRACON
09:29PM 40.4667 -74.8303 248° West 332 382 15,300 1,680 Climbing New York Center
09:30PM 40.4342 -74.9292 247° West 332 382 16,800 1,380 Climbing New York Center
09:31PM 40.3739 -75.0400 235° Southwest 337 388 18,200 1,380 Climbing New York Center
09:32PM 40.3081 -75.1339 227° Southwest 348 400 19,700 1,620 Climbing New York Center
09:33PM 40.2378 -75.2275 225° Southwest 353 406 21,400 1,260 Climbing New York Center
09:34PM 40.1694 -75.3261 228° Southwest 359 413 22,200 660 Climbing New York Center
09:35PM 40.0922 -75.4325 227° Southwest 380 437 22,800 540 Climbing New York Center
09:36PM 40.0150 -75.5439 228° Southwest 408 470 23,300 780 Climbing New York Center
09:37PM 39.9331 -75.6572 227° Southwest 424 488 24,500 1,320 Climbing New York Center
09:38PM 39.8575 -75.7711 229° Southwest 429 494 26,000 1,380 Climbing New York Center
09:39PM 39.7881 -75.8822 231° Southwest 415 478 27,200 960 Climbing New York Center
09:40PM 39.7183 -75.9961 232° Southwest 408 470 28,000 840 Climbing New York Center
09:41PM 39.6467 -76.1094 231° Southwest 408 470 29,000 1,080 Climbing New York Center
09:42PM 39.5936 -76.2186 238° Southwest 408 470 30,200 1,020 Climbing New York Center
09:43PM 39.5853 -76.3525 265° West 379 436 31,100 1,260 Climbing New York Center
09:45PM 39.5389 -76.5683 254° West 380 437 33,500 1,260 Climbing Washington Center
09:46PM 39.4567 -76.6586 220° Southwest 386 444 34,500 780 Climbing Washington Center
09:47PM 39.3664 -76.7378 214° Southwest 398 458 35,200 540 Climbing Washington Center
09:48PM 39.2739 -76.8167 213° Southwest 403 464 35,700 360 Climbing Washington Center
09:49PM 39.1856 -76.9011 217° Southwest 403 464 36,000 120 Climbing Washington Center
09:50PM 39.0928 -76.9903 217° Southwest 408 470 36,000  Level Washington Center
09:51PM 38.9981 -77.0819 217° Southwest 415 478 36,000  Level Washington Center
09:52PM 38.9069 -77.1842 221° Southwest 427 491 36,000  Level Washington Center
09:53PM 38.8181 -77.2836 221° Southwest 432 497 36,000  Level Washington Center
09:54PM 38.7269 -77.3825 220° Southwest 437 503 36,000  Level Washington Center
09:55PM 38.6400 -77.4789 221° Southwest 437 503 36,000  Level Washington Center
09:56PM 38.5531 -77.5747 221° Southwest 432 497 36,000  Level Washington Center
09:57PM 38.4661 -77.6681 220° Southwest 421 484 36,000  Level Washington Center
09:58PM 38.3808 -77.7636 221° Southwest 416 479 36,000  Level Washington Center
09:59PM 38.2917 -77.8561 219° Southwest 416 479 36,000  Level Washington Center
10:00PM 38.2064 -77.9489 221° Southwest 416 479 36,000  Level Washington Center
10:01PM 38.1169 -78.0436 220° Southwest 416 479 36,000  Level Washington Center
10:02PM 38.0317 -78.1358 220° Southwest 411 473 36,000  Level Washington Center
10:03PM 37.9583 -78.2411 229° Southwest 399 459 36,000  Level Washington Center
10:04PM 37.8850 -78.3492 229° Southwest 404 465 36,000  Level Washington Center
10:05PM 37.8075 -78.4567 228° Southwest 410 472 36,000  Level Washington Center
10:06PM 37.7253 -78.5744 229° Southwest 415 478 36,000  Level Washington Center
10:07PM 37.6497 -78.6817 228° Southwest 415 478 36,000  Level Washington Center
10:08PM 37.5739 -78.7858 227° Southwest 415 478 36,000  Level Washington Center
10:09PM 37.5000 -78.8953 230° Southwest 415 478 36,100 -120 Climbing Washington Center
10:10PM 37.4242 -78.9994 228° Southwest 415 478 35,800 -480 Descending Washington Center
10:11PM 37.3544 -79.0956 228° Southwest 415 478 35,200 -600 Descending Washington Center
10:12PM 37.2761 -79.2042 228° Southwest 415 478 34,700 -540 Descending Washington Center
10:13PM 37.1839 -79.2936 218° Southwest 415 478 34,200 -540 Descending Washington Center
10:14PM 37.0872 -79.3775 215° Southwest 421 484 33,700 -480 Descending Washington Center
10:15PM 36.9889 -79.4558 212° Southwest 427 491 33,300 -480 Descending Washington Center
10:16PM 36.8775 -79.5439 212° Southwest 435 501 32,800 -1,020 Descending Washington Center
10:18PM 36.6378 -79.7417 214° Southwest 423 487 29,900 -1,680 Descending Atlanta Center
10:19PM 36.5444 -79.8164 213° Southwest 430 495 27,100 -2,820 Descending Atlanta Center
10:20PM 36.4472 -79.8989 214° Southwest 430 495 24,300 -2,580 Descending Atlanta Center
10:21PM 36.3519 -79.9761 213° Southwest 425 489 22,000 -1,200 Descending Atlanta Center
10:22PM 36.2606 -80.0503 213° Southwest 414 476 22,000 -600 Level Atlanta Center
10:23PM 36.1608 -80.1322 214° Southwest 403 464 20,900 -1,620 Descending Atlanta Center
10:24PM 36.0736 -80.2083 215° Southwest 396 456 18,800 -2,100 Descending Atlanta Center
10:25PM 35.9883 -80.2817 215° Southwest 391 450 16,800 -1,860 Descending Atlanta Center
10:26PM 35.9272 -80.3358 216° Southwest 351 404 15,500 -1,740 Descending Atlanta Center
10:27PM 35.8847 -80.3736 216° Southwest 318 366 14,400 -1,620 Descending Atlanta Center
10:27PM 35.8503 -80.4061 217° Southwest 330 380 13,600 -1,320 Descending Atlanta Center
10:28PM 35.8156 -80.4383 217° Southwest 300 345 13,100 -600 Descending Atlanta Center
10:28PM 35.7728 -80.4708 212° Southwest 327 376 13,000 -120 Descending Atlanta Center
10:28PM 35.7381 -80.5006 215° Southwest 362 417 13,000 60 Level Atlanta Center
10:29PM 35.6792 -80.5492 214° Southwest 357 411 13,100  Climbing Atlanta Center
10:29PM 35.6528 -80.5758 219° Southwest 387 445 13,000 -720 Descending Atlanta Center
10:30PM 35.5936 -80.6217 212° Southwest 376 433 12,400 -1,020 Descending Atlanta Center
10:30PM 35.5650 -80.6458 214° Southwest 381 438 12,000 -840 Descending Atlanta Center
10:31PM 35.5078 -80.6889 211° Southwest 381 438 11,600 -720 Descending Atlanta Center
10:31PM 35.4792 -80.7106 212° Southwest 363 418 11,300 -600 Descending Atlanta Center
10:32PM 35.4261 -80.7586 216° Southwest 375 432 11,000 -300 Descending Atlanta Center
10:32PM 35.3997 -80.7800 213° Southwest 352 405 11,000 -300 Level Atlanta Center
10:33PM 35.3444 -80.8231 212° Southwest 360 414 10,700 -720 Descending Atlanta Center
10:34PM 35.3133 -80.8344 197° South 307 353 10,300 -1,140 Descending Atlanta Center
10:34PM 35.2675 -80.8361 182° South 296 341 9,600 -1,200 Descending Atlanta Center
10:35PM 35.2383 -80.8347 178° South 254 292 9,100 -1,440 Descending Atlanta Center
10:35PM 35.2008 -80.8361 182° South 278 320 8,200 -1,980 Descending Atlanta Center
10:35PM 35.1756 -80.8319 172° South 253 291 7,300 -2,640 Descending Atlanta Center
10:36PM 35.1067 -80.8297 178° South 252 290 4,800 -1,680 Descending Atlanta Center
10:37PM 35.0600 -80.8797 221° Southwest 254 292 4,000 -780 Descending Atlanta Center
10:38PM 35.0828 -80.9550 290° West 228 262 3,300 -960 Descending Atlanta Center
10:39PM 35.1372 -80.9631 353° North 181 208 2,100 -1,200 Descending Atlanta Center